»·PEaware :: N899M KRDD-KFAT

N899M :: KRDD-KFAT

FLIGHT INFORMATION

Flight Status: Arrived
Operator: Privately registered:
United States
More flights under this callsign
Pilot: Robert C. (30425)
Aircraft: Unknown
(EPIC)
More flights by this aircraft type
Origin: KRDD Redding Mun
United States
Destination: KFAT Fresno Yosemite Intl
United States
More flights between these airports :: More routes between these airports
Route: RBL ILA SAC MOD HYP
File this flight plan on PilotEdge
Remarks:
Altitude:
(Current/Filed)
11,500ft
Speed:
(Current/Filed)
295kts
Departed: 12-Oct-20 07:15 PM
Arrived: 12-Oct-20 08:17 PM
Distance/Time
Traveled:
255nm/1:02
Distance/Time
To Go:
Arrived

Flight Plot

Page will automatically refresh every two minutes.

Flight plan parsing failed; only flown route is shown


Map Options




Map Legend


Flown Route
Filed Route
Departure Airport
Arrival Airport
Navaid (VOR, NDB)
Fix

Horizontal Profiles

Position Reports

Time Latitude Longitude Heading Altitude Ground
Speed
12-Oct-20 18:54 40.510892 -122.298236 359 500ft 0kts
12-Oct-20 18:55 40.510892 -122.298236 359 500ft 0kts
12-Oct-20 18:56 40.510892 -122.298236 359 500ft 0kts
12-Oct-20 18:57 40.510892 -122.298236 359 500ft 0kts
12-Oct-20 18:58 40.510892 -122.298236 359 500ft 0kts
12-Oct-20 18:59 40.510892 -122.298236 359 500ft 0kts
12-Oct-20 19:00 40.510892 -122.298236 359 500ft 0kts
12-Oct-20 19:01 40.510892 -122.298236 359 500ft 0kts
12-Oct-20 19:02 40.510892 -122.298236 359 500ft 0kts
12-Oct-20 19:03 40.510892 -122.298236 359 500ft 0kts
12-Oct-20 19:04 40.510892 -122.298236 359 500ft 0kts
12-Oct-20 19:05 40.510892 -122.298236 359 500ft 0kts
12-Oct-20 19:06 40.510892 -122.298236 359 500ft 0kts
12-Oct-20 19:07 40.510892 -122.298236 359 500ft 0kts
12-Oct-20 19:08 40.510892 -122.298236 359 500ft 0kts
12-Oct-20 19:09 40.511734 -122.297362 50 499ft 13kts
12-Oct-20 19:10 40.515174 -122.296294 359 504ft 12kts
12-Oct-20 19:11 40.518477 -122.296306 359 506ft 11kts
12-Oct-20 19:12 40.520220 -122.295930 75 507ft 0kts
12-Oct-20 19:13 40.520220 -122.295930 75 507ft 0kts
12-Oct-20 19:14 40.511952 -122.294696 177 578ft 137kts
12-Oct-20 19:15 40.454928 -122.292552 173 1771ft 256kts
12-Oct-20 19:16 40.380675 -122.278569 171 3292ft 278kts
12-Oct-20 19:17 40.303494 -122.263734 171 4793ft 281kts
12-Oct-20 19:18 40.225726 -122.249658 172 6290ft 285kts
12-Oct-20 19:19 40.146510 -122.234982 172 7794ft 290kts
12-Oct-20 19:20 40.066093 -122.219328 173 9298ft 294kts
12-Oct-20 19:21 39.984323 -122.211345 167 10796ft 299kts
12-Oct-20 19:22 39.908587 -122.187845 168 11489ft 302kts
12-Oct-20 19:23 39.826101 -122.162140 168 11498ft 307kts
12-Oct-20 19:24 39.741887 -122.140804 173 11497ft 308kts
12-Oct-20 19:25 39.657482 -122.124144 173 11499ft 307kts
12-Oct-20 19:26 39.573239 -122.108964 174 11499ft 304kts
12-Oct-20 19:27 39.489481 -122.094221 174 11499ft 303kts
12-Oct-20 19:28 39.405753 -122.079455 174 11499ft 303kts
12-Oct-20 19:29 39.322029 -122.065021 175 11498ft 303kts
12-Oct-20 19:30 39.238274 -122.052075 175 11493ft 303kts
12-Oct-20 19:31 39.154328 -122.040612 176 11491ft 303kts
12-Oct-20 19:32 39.075071 -122.007691 150 11493ft 308kts
12-Oct-20 19:33 39.002810 -121.947958 148 11493ft 308kts
12-Oct-20 19:34 38.930372 -121.889437 149 11496ft 307kts
12-Oct-20 19:35 38.857208 -121.831848 149 11494ft 307kts
12-Oct-20 19:36 38.784439 -121.774717 149 11492ft 306kts
12-Oct-20 19:37 38.712533 -121.718239 149 11486ft 301kts
12-Oct-20 19:39 38.640539 -121.663479 152 11493ft 299kts
12-Oct-20 19:40 38.567519 -121.612412 151 11502ft 299kts
12-Oct-20 19:41 38.492802 -121.566136 156 11501ft 299kts
12-Oct-20 19:42 38.418902 -121.517624 146 11499ft 300kts
12-Oct-20 19:43 38.349379 -121.458844 146 11493ft 300kts
12-Oct-20 19:44 38.279517 -121.401117 147 11492ft 300kts
12-Oct-20 19:45 38.208344 -121.345320 151 11490ft 299kts
12-Oct-20 19:46 38.136153 -121.292529 151 11490ft 299kts
12-Oct-20 19:47 38.063898 -121.240700 152 11490ft 299kts
12-Oct-20 19:48 37.991066 -121.189453 152 11491ft 299kts
12-Oct-20 19:49 37.918407 -121.138493 152 11491ft 298kts
12-Oct-20 19:50 37.845888 -121.087919 152 11488ft 297kts
12-Oct-20 19:51 37.773472 -121.037705 151 11485ft 296kts
12-Oct-20 19:52 37.701482 -120.988085 151 11482ft 294kts
12-Oct-20 19:53 37.630602 -120.936793 135 11481ft 294kts
12-Oct-20 19:54 37.572665 -120.865717 135 10899ft 283kts
12-Oct-20 19:54 37.526338 -120.808858 135 10211ft 274kts
12-Oct-20 19:56 37.463486 -120.731695 135 9158ft 268kts
12-Oct-20 19:56 37.420043 -120.676191 132 8410ft 266kts
12-Oct-20 19:58 37.361501 -120.596602 132 7362ft 265kts
12-Oct-20 19:58 37.320225 -120.539636 130 6615ft 264kts
12-Oct-20 19:59 37.272087 -120.470327 130 5716ft 262kts
12-Oct-20 20:00 37.225705 -120.403711 130 5480ft 242kts
12-Oct-20 20:01 37.183856 -120.339895 128 5486ft 232kts
12-Oct-20 20:02 37.140964 -120.280313 132 5493ft 229kts
12-Oct-20 20:03 37.096143 -120.219954 134 5057ft 242kts
12-Oct-20 20:04 37.049075 -120.158120 131 4566ft 247kts
12-Oct-20 20:05 37.003652 -120.094627 131 3982ft 236kts
12-Oct-20 20:06 36.962555 -120.037116 131 3261ft 212kts
12-Oct-20 20:07 36.924158 -119.983372 131 2558ft 203kts
12-Oct-20 20:08 36.887570 -119.936431 134 2505ft 179kts
12-Oct-20 20:09 36.851249 -119.892469 136 2506ft 186kts
12-Oct-20 20:10 36.814625 -119.848298 112 2500ft 184kts
12-Oct-20 20:11 36.794867 -119.799557 116 1768ft 135kts
12-Oct-20 20:12 36.775155 -119.753797 122 1511ft 178kts
12-Oct-20 20:13 36.746380 -119.702273 124 1214ft 159kts
12-Oct-20 20:14 36.751813 -119.678673 304 933ft 127kts
12-Oct-20 20:15 36.768885 -119.708005 306 414ft 98kts
12-Oct-20 20:16 36.775465 -119.720659 163 336ft 0kts
12-Oct-20 20:17 36.775167 -119.720507 152 336ft 8kts
12-Oct-20 20:18 36.772185 -119.719058 180 336ft 7kts
12-Oct-20 20:19 36.771885 -119.718984 137 336ft 0kts
12-Oct-20 20:20 36.771885 -119.718984 137 336ft 0kts
12-Oct-20 20:21 36.771885 -119.718984 137 336ft 0kts
12-Oct-20 20:22 36.771885 -119.718984 137 336ft 0kts
12-Oct-20 20:23 36.771885 -119.718984 137 336ft 0kts
12-Oct-20 20:24 36.771885 -119.718984 137 336ft 0kts
12-Oct-20 20:25 36.771885 -119.718984 137 336ft 0kts
12-Oct-20 20:26 36.771885 -119.718984 137 336ft 0kts
12-Oct-20 20:27 36.771885 -119.718984 137 336ft 0kts
12-Oct-20 20:28 36.771885 -119.718984 137 336ft 0kts
12-Oct-20 20:29 36.771885 -119.718984 137 336ft 0kts
12-Oct-20 20:30 36.771885 -119.718984 137 336ft 0kts
12-Oct-20 20:31 36.771885 -119.718984 137 336ft 0kts

Navigation Log

Ident Type
Flight plan parsing failed, navigation log unavailable